Etusivu
METAR-TAF:

METAR-TAF

Lentoasemat :

South Big Horn County Airport

Greybull, Wyoming, Yhdysvallat

Leveyspiiri: 44-30-57N, Pituuspiiri: 108-04-33W, korkeus merenpinnasta: 1199 m

Tämänhetkinen sää

Tämä raportti tehtiin 18 minuuttia sitten, kello 16.16 UTC
Tuuli 3 kn eri suunnista
Lämpötila 5°C
Kosteus 65%
Ilmanpaine 1015 hPa
Näkyvyys: 16.1 km
Hajonneita pilviä 2300 ft:n korkeudessa
Pilvistä 6000 ft:n korkeudessa

METAR: KGEY 191616Z AUTO VRB03KT 10SM BKN023 OVC060 05/M01 A2998 RMK AO2 T00501006

Aika: 10:34 (16:34 UTC)


TAF: puuttuu

Säähavainnot ja -ennusteet yli 4000 lentoasemalta (METAR- ja TAF-raportit).

Käytössä olevat sääasemat on merkitty karttaan keltaisilla ja punaisilla pisteillä.

Aseta hiiri pisteen päälle nähdäksesi sääaseman nimen.

Klikkaa sitten nähdäksesi säähavainnot ja -ennusteet.

Kartan vaihtaminen: klikkaa mustalla rastilla varustettuja vihreitä pisteitä, niin voit zoomata sisään; viivalla varustettua vihreää pistettä, niin voit zoomata ulos tai vihreitä nuolia, niin pääset viereisille kartoille.


METAR-TAF: